delimiter.com.au alexa rank chart, delimiter.com.au alexa rank daily changes

delimiter.com.au alexa rank chart, delimiter.com.au alexa rank daily changes

delimiter.com.au
Actual rank:
631 021

RANK HISTORY

Date Rank Diff
2017/01/22 631 021 +14 224
2017/01/21 616 797 +39
2017/01/20 616 758 +12 608
2017/01/19 604 150 -17 881
2017/01/18 622 031 -24 746
2017/01/17 646 777 +6 581
2017/01/16 640 196 -7 823
2017/01/15 648 019 +42 947
2017/01/14 605 072 -5 241
2017/01/13 610 313 +9 648
2017/01/12 600 665 +1 610
2017/01/11 599 055 -45 216
2017/01/10 644 271 +6 180
2017/01/09 638 091 -4 103
2017/01/08 642 194 -14 759
2017/01/07 656 953 -33 350
2017/01/06 690 303 +35 342
2017/01/05 654 961 -10 265
2017/01/04 665 226 -14 674
2017/01/03 679 900 +17 979
2017/01/02 661 921 +14 419
2017/01/01 647 502 -929
2016/12/31 648 431 -17 867
2016/12/30 666 298 -11 236
2016/12/29 677 534 -35 516
2016/12/28 713 050 +43 017
2016/12/27 670 033 -28 657
2016/12/26 698 690 +16 463
2016/12/25 682 227 +156 658
2016/12/24 525 569 +6 826
2016/12/23 518 743 +568
2016/12/22 518 175 -10 042
2016/12/21 528 217 +309
2016/12/20 527 908 -1 512
2016/12/19 529 420 +3 846
2016/12/18 525 574 +26 349
2016/12/17 499 225 -9 898
2016/12/16 509 123 -5 768
2016/12/15 514 891 -16 691
2016/12/14 531 582 -4 903
2016/12/13 536 485 +2 702
2016/12/12 533 783 +11 797
2016/12/11 521 986 +16 586
2016/12/10 505 400 +5 529
2016/12/09 499 871 -1 507
2016/12/08 501 378 -1 767
2016/12/07 503 145 -1 116
2016/12/06 504 261 -15 030
2016/12/05 519 291 +16 562
2016/12/04 502 729 +70 059
2016/12/02 432 670 -8 893
2016/12/01 441 563 +4 463
2016/11/30 437 100 -869
2016/11/29 437 969 +3 763
2016/11/28 434 206 +1 804
2016/11/27 432 402 +8 371
2016/11/26 424 031 +30 711
2016/11/25 393 320 -55 493
2016/11/24 448 813 -174
2016/11/23 448 987

WIDGET FOR YOUR SITE

DOMAINS WITH THE NEAREST RANK

Domain Rank
kineticopolis.com 631 016
asaiau.ac.ir 631 017
neopost.fr 631 018
trooli.fi 631 019
gaietytheatre.ie 631 020
delimiter.com.au 631 021
americasolidaria.org 631 022
wangshuge.com 631 023
cajerosybancos.es 631 024
portagloryhole.com 631 025
footfetishbb.com 631 026

DOMAINS WITH THE NEAREST RANK BY TLD .com.au

Domain Rank
lifestylestore.com.au 629 668
kaboodle.com.au 630 181
ausamarok.com.au 630 467
heidirose.com.au 630 614
thethousands.com.au 630 723
delimiter.com.au 631 021
aussiehq.com.au 631 519
autoreviewa.com.au 631 521
integrapay.com.au 631 625
mygration.com.au 631 730
goodvibrationsadulttoys.com.au 632 020